createdAt,value
2022-09-26T00:00:17.350Z,100433.94
2022-09-26T00:05:19.263Z,100429.47
2022-09-26T00:10:21.290Z,100427.75
2022-09-26T00:15:24.061Z,100417.72
2022-09-26T00:20:25.930Z,100421.56
2022-09-26T00:25:27.888Z,100409.19
2022-09-26T00:30:29.746Z,100398.38
2022-09-26T00:35:31.793Z,100388.78
2022-09-26T00:40:34.039Z,100384.09
2022-09-26T00:45:36.440Z,100378.00
2022-09-26T00:50:41.631Z,100364.00
2022-09-26T00:55:48.861Z,100360.38
2022-09-26T01:00:51.671Z,100353.66
2022-09-26T01:05:54.409Z,100349.81
2022-09-26T01:10:57.735Z,100341.91
2022-09-26T01:15:59.683Z,100333.56
2022-09-26T01:21:07.920Z,100338.16
2022-09-26T01:26:58.049Z,100331.22
2022-09-26T01:32:36.767Z,100331.88
2022-09-26T01:38:01.471Z,100322.13
2022-09-26T01:43:58.805Z,100317.97
2022-09-26T01:49:14.791Z,100315.19
2022-09-26T01:54:28.004Z,100305.38
2022-09-26T01:59:35.188Z,100291.59
2022-09-26T02:04:41.664Z,100283.81
2022-09-26T02:09:50.673Z,100266.22
2022-09-26T02:14:56.952Z,100259.16
2022-09-26T02:20:02.031Z,100241.19
2022-09-26T02:25:08.841Z,100226.16
2022-09-26T02:30:11.382Z,100223.50
2022-09-26T02:35:32.471Z,100207.69
2022-09-26T02:41:04.047Z,100185.16
2022-09-26T02:46:19.639Z,100188.03
2022-09-26T02:51:41.035Z,100175.53
2022-09-26T02:56:55.745Z,100158.44
2022-09-26T03:02:06.569Z,100147.25
2022-09-26T03:07:15.048Z,100140.22
2022-09-26T03:12:19.205Z,100123.53
2022-09-26T03:17:21.956Z,100117.47
2022-09-26T03:22:25.566Z,100109.66
2022-09-26T03:27:28.007Z,100093.44
2022-09-26T03:32:30.017Z,100087.47
2022-09-26T03:37:34.298Z,100084.06
2022-09-26T03:42:37.023Z,100080.09
2022-09-26T03:47:38.902Z,100075.31
2022-09-26T03:52:40.629Z,100066.22
2022-09-26T03:57:43.105Z,100059.69
2022-09-26T04:02:45.035Z,100059.19
2022-09-26T04:07:47.486Z,100043.66
2022-09-26T04:12:49.415Z,100036.75
2022-09-26T04:17:51.240Z,100025.53
2022-09-26T04:22:52.976Z,100011.88
2022-09-26T04:27:55.118Z,100007.72
2022-09-26T04:32:57.015Z,99978.97
2022-09-26T04:37:59.228Z,99983.72
2022-09-26T04:43:01.013Z,99960.53
2022-09-26T04:48:03.071Z,99957.88
2022-09-26T04:53:06.667Z,99946.09
2022-09-26T04:58:08.503Z,99942.59
2022-09-26T05:03:10.914Z,99940.75
2022-09-26T05:08:14.336Z,99933.50
2022-09-26T05:13:16.194Z,99915.91
2022-09-26T05:18:17.881Z,99903.19
2022-09-26T05:23:44.526Z,99903.66
2022-09-26T05:29:08.089Z,99903.41
2022-09-26T05:34:16.900Z,99904.50
2022-09-26T05:39:42.418Z,99892.25
2022-09-26T05:44:44.764Z,99888.84
2022-09-26T05:49:46.907Z,99885.56
2022-09-26T05:54:48.794Z,99859.13
2022-09-26T05:59:50.723Z,99859.97
2022-09-26T06:04:52.811Z,99847.59
2022-09-26T06:09:54.893Z,99837.03
2022-09-26T06:14:56.644Z,99837.78
2022-09-26T06:19:58.674Z,99828.03
2022-09-26T06:25:00.771Z,99825.25
2022-09-26T06:30:02.733Z,99811.44
2022-09-26T06:35:05.321Z,99813.00
2022-09-26T06:40:09.209Z,99805.75
2022-09-26T06:45:11.915Z,99802.22
2022-09-26T06:50:13.631Z,99797.97
2022-09-26T06:55:15.506Z,99789.22
2022-09-26T07:00:17.461Z,99774.56
2022-09-26T07:05:20.525Z,99757.81
2022-09-26T07:10:22.226Z,99754.06
2022-09-26T07:15:24.963Z,99744.97
2022-09-26T07:20:26.751Z,99738.19
2022-09-26T07:25:29.876Z,99733.56
2022-09-26T07:30:31.635Z,99719.09
2022-09-26T07:35:36.015Z,99709.66
2022-09-26T07:40:38.652Z,99709.66
2022-09-26T07:45:59.294Z,99692.09
2022-09-26T07:51:05.691Z,99687.59
2022-09-26T07:56:13.272Z,99685.03
2022-09-26T08:01:16.811Z,99678.47
2022-09-26T08:06:20.524Z,99692.56
2022-09-26T08:11:23.036Z,99671.31
2022-09-26T08:16:24.921Z,99666.59
2022-09-26T08:21:27.230Z,99662.72
2022-09-26T08:26:29.089Z,99661.38
2022-09-26T08:31:31.766Z,99656.06
2022-09-26T08:36:33.660Z,99641.13
2022-09-26T08:41:55.986Z,99639.78
2022-09-26T08:47:05.434Z,99633.50
2022-09-26T08:52:28.552Z,99620.72
2022-09-26T08:57:39.551Z,99625.34
2022-09-26T09:02:50.702Z,99609.31
2022-09-26T09:07:56.906Z,99612.63
2022-09-26T09:13:10.908Z,99602.53
2022-09-26T09:18:15.734Z,99588.81
2022-09-26T09:23:59.365Z,99575.38
2022-09-26T09:29:34.095Z,99570.41
2022-09-26T09:34:41.485Z,99575.25
2022-09-26T09:39:45.890Z,99567.25
2022-09-26T09:45:02.137Z,99558.66
2022-09-26T09:50:14.783Z,99562.91
2022-09-26T09:55:21.032Z,99556.72
2022-09-26T10:00:24.877Z,99543.75
2022-09-26T10:05:42.966Z,99541.91
2022-09-26T10:10:59.475Z,99518.03
2022-09-26T10:16:09.946Z,99512.94
2022-09-26T10:21:16.501Z,99503.38
2022-09-26T10:26:30.505Z,99508.72
2022-09-26T10:31:42.018Z,99487.22
2022-09-26T10:36:44.700Z,99471.59
2022-09-26T10:41:47.985Z,99453.25
2022-09-26T10:46:52.576Z,99466.72
2022-09-26T10:52:12.522Z,99447.19
2022-09-26T10:57:21.641Z,99428.34
2022-09-26T11:02:26.522Z,99417.94
2022-09-26T11:07:33.496Z,99421.44
2022-09-26T11:12:39.704Z,99412.59
2022-09-26T11:17:50.158Z,99400.50
2022-09-26T11:23:20.774Z,99411.16
2022-09-26T11:28:34.521Z,99408.22
2022-09-26T11:33:36.275Z,99395.28
2022-09-26T11:38:49.924Z,99389.66
2022-09-26T11:44:05.279Z,99387.00
2022-09-26T11:49:25.667Z,99387.16
2022-09-26T11:54:47.309Z,99376.31
2022-09-26T12:00:08.389Z,99377.03
2022-09-26T12:05:30.434Z,99381.44
2022-09-26T12:10:43.996Z,99360.59
2022-09-26T12:15:54.684Z,99346.63
2022-09-26T12:21:21.065Z,99352.72
2022-09-26T12:26:42.223Z,99339.13
2022-09-26T12:31:54.990Z,99332.78
2022-09-26T12:37:10.330Z,99323.69
2022-09-26T12:42:33.476Z,99319.44
2022-09-26T12:48:00.650Z,99316.91
2022-09-26T12:53:31.156Z,99296.94
2022-09-26T12:58:51.154Z,99311.22
2022-09-26T13:04:35.622Z,99288.25
2022-09-26T13:10:11.859Z,99295.78
2022-09-26T13:15:41.851Z,99281.50
2022-09-26T13:20:47.252Z,99272.50
2022-09-26T13:25:54.585Z,99269.19
2022-09-26T13:31:04.726Z,99265.78
2022-09-26T13:36:09.929Z,99261.16
2022-09-26T13:41:42.892Z,99264.22
2022-09-26T13:47:12.702Z,99260.34
2022-09-26T13:52:23.864Z,99256.00
2022-09-26T13:57:31.915Z,99245.03
2022-09-26T14:02:34.564Z,99239.50
2022-09-26T14:08:01.078Z,99233.31
2022-09-26T14:13:22.227Z,99231.69
2022-09-26T14:19:17.944Z,99215.97
2022-09-26T14:24:37.513Z,99214.66
2022-09-26T14:29:39.423Z,99216.63
2022-09-26T14:34:48.662Z,99213.56
2022-09-26T14:40:28.717Z,99207.06
2022-09-26T14:45:33.311Z,99206.81
2022-09-26T14:51:18.815Z,99187.75
2022-09-26T14:56:38.608Z,99187.16
2022-09-26T15:01:41.648Z,99192.56
2022-09-26T15:06:46.911Z,99174.25
2022-09-26T15:11:55.671Z,99174.00
2022-09-26T15:16:59.545Z,99170.44
2022-09-26T15:22:14.901Z,99169.00
2022-09-26T15:27:19.535Z,99158.94
2022-09-26T15:32:29.407Z,99148.91
2022-09-26T15:37:36.712Z,99157.91
2022-09-26T15:42:57.437Z,99142.16
2022-09-26T15:48:05.004Z,99128.63
2022-09-26T15:53:09.050Z,99123.31
2022-09-26T15:58:15.917Z,99111.41
2022-09-26T16:03:31.205Z,99107.78
2022-09-26T16:08:40.544Z,99093.31
2022-09-26T16:13:48.146Z,99103.16
2022-09-26T16:18:56.595Z,99100.03
2022-09-26T16:24:20.537Z,99090.91
2022-09-26T16:29:35.506Z,99100.03
2022-09-26T16:34:37.335Z,99080.81
2022-09-26T16:39:39.493Z,99081.50
2022-09-26T16:44:50.037Z,99073.50
2022-09-26T16:49:52.204Z,99077.41
2022-09-26T16:54:56.442Z,99082.59
2022-09-26T17:00:23.690Z,99085.66
2022-09-26T17:05:25.492Z,99077.00
2022-09-26T17:10:27.275Z,99077.63
2022-09-26T17:15:30.432Z,99058.00
2022-09-26T17:20:32.162Z,99068.50
2022-09-26T17:25:35.985Z,99063.03
2022-09-26T17:30:37.859Z,99050.72
2022-09-26T17:35:40.819Z,99061.50
2022-09-26T17:40:45.960Z,99062.91
2022-09-26T17:45:50.966Z,99058.84
2022-09-26T17:50:56.767Z,99051.41
2022-09-26T17:55:58.680Z,99051.13
2022-09-26T18:01:03.814Z,99042.00
2022-09-26T18:06:05.832Z,99046.78
2022-09-26T18:11:18.027Z,99052.50
2022-09-26T18:16:20.918Z,99056.59
2022-09-26T18:21:24.379Z,99056.75
2022-09-26T18:26:32.376Z,99054.09
2022-09-26T18:31:38.537Z,99063.31
2022-09-26T18:36:40.568Z,99073.59
2022-09-26T18:41:42.628Z,99082.13
2022-09-26T18:46:46.951Z,99072.03
2022-09-26T18:51:49.397Z,99074.72
2022-09-26T18:57:09.939Z,99077.75
2022-09-26T19:02:23.353Z,99074.97
2022-09-26T19:07:25.728Z,99072.16
2022-09-26T19:12:27.785Z,99072.28
2022-09-26T19:17:29.715Z,99064.03
2022-09-26T19:22:31.881Z,99072.88
2022-09-26T19:27:49.119Z,99057.84
2022-09-26T19:32:53.491Z,99058.84
2022-09-26T19:37:55.543Z,99053.63
2022-09-26T19:42:57.720Z,99060.50
2022-09-26T19:47:59.560Z,99063.56
2022-09-26T19:53:03.474Z,99066.25
2022-09-26T19:58:13.399Z,99062.75
2022-09-26T20:03:18.109Z,99062.75
2022-09-26T20:08:22.851Z,99074.13
2022-09-26T20:13:24.689Z,99069.75
2022-09-26T20:18:26.662Z,99078.75
2022-09-26T20:23:28.704Z,99072.28
2022-09-26T20:28:30.961Z,99065.84
2022-09-26T20:33:33.741Z,99070.34
2022-09-26T20:38:48.173Z,99066.97
2022-09-26T20:43:53.658Z,99068.06
2022-09-26T20:48:55.619Z,99068.19
2022-09-26T20:54:00.304Z,99070.03
2022-09-26T20:59:02.218Z,99062.88
2022-09-26T21:04:05.524Z,99066.97
2022-09-26T21:09:15.364Z,99065.13
2022-09-26T21:14:18.372Z,99063.31
2022-09-26T21:19:23.819Z,99062.88
2022-09-26T21:24:35.256Z,99056.41
2022-09-26T21:29:37.336Z,99057.41
2022-09-26T21:34:39.638Z,99052.47
2022-09-26T21:39:41.564Z,99052.91
2022-09-26T21:44:48.783Z,99057.00
2022-09-26T21:49:51.030Z,99062.63
2022-09-26T21:54:53.339Z,99066.72
2022-09-26T21:59:56.775Z,99063.00
2022-09-26T22:04:59.841Z,99066.53
2022-09-26T22:10:01.803Z,99062.44
2022-09-26T22:15:03.852Z,99071.59
2022-09-26T22:20:05.788Z,99081.00
2022-09-26T22:25:08.551Z,99082.97
2022-09-26T22:30:10.920Z,99085.91
2022-09-26T22:35:13.302Z,99086.34
2022-09-26T22:40:15.276Z,99082.97
2022-09-26T22:45:17.737Z,99084.66
2022-09-26T22:50:19.788Z,99105.72
2022-09-26T22:55:21.866Z,99100.66
2022-09-26T23:00:23.731Z,99106.00
2022-09-26T23:05:25.616Z,99101.19
2022-09-26T23:10:27.713Z,99107.63
2022-09-26T23:15:29.837Z,99104.56
2022-09-26T23:20:31.748Z,99106.84
2022-09-26T23:25:34.194Z,99105.13
2022-09-26T23:30:36.199Z,99103.59
2022-09-26T23:35:39.084Z,99100.06
2022-09-26T23:40:41.534Z,99101.75
2022-09-26T23:45:43.584Z,99103.88
2022-09-26T23:50:47.186Z,99103.72
2022-09-26T23:55:49.239Z,99112.22
